KSLG/SLG METAR and TAF weather

Enter ICAO airport designator
Station Type Date Time Source
KSLG METAR 2021/04/13 21:56 UTC NOAA

KSLG 132156Z AUTO 06008G14KT 10SM OVC050 18/06 A3011 RMK AO2 SLP192 T01780061 TSNO


Station Type Date Time Source
KSLG Decoded METAR 2021/04/13 21:56 UTC NOAA

Siloam Springs, Smith Field Airport, AR, United States (KSLG) 36-12N 094-29W
Apr 13, 2021 - 05:56 PM EDT / 2021.04.13 2156 UTC
Wind: from the ENE (060 degrees) at 9 MPH (8 KT) gusting to 16 MPH (14 KT):0
Visibility: 10 mile(s):0
Sky conditions: overcast
Temperature: 64.0 F (17.8 C)
Dew Point: 43.0 F (6.1 C)
Relative Humidity: 46%
Pressure (altimeter): 30.11 in. Hg (1019 hPa)
ob: KSLG 132156Z AUTO 06008G14KT 10SM OVC050 18/06 A3011 RMK AO2 SLP192 T01780061 TSNO
cycle: 22

Station Type Date Time Source
KSLG TAF UTC NOAA

Error!

Example: see airport list